createdAt,value
2023-03-17T00:02:08.359Z,2.92
2023-03-17T00:04:36.653Z,2.97
2023-03-17T00:07:06.460Z,3.35
2023-03-17T00:09:34.497Z,3.25
2023-03-17T00:12:03.831Z,3.45
2023-03-17T00:14:31.728Z,3.25
2023-03-17T00:16:59.825Z,3.20
2023-03-17T00:19:31.347Z,3.05
2023-03-17T00:21:59.999Z,2.80
2023-03-17T00:24:28.525Z,3.08
2023-03-17T00:26:56.690Z,2.90
2023-03-17T00:29:26.976Z,2.60
2023-03-17T00:31:56.468Z,2.90
2023-03-17T00:34:24.506Z,2.90
2023-03-17T00:36:53.434Z,3.30
2023-03-17T00:39:24.292Z,2.90
2023-03-17T00:41:55.770Z,2.88
2023-03-17T00:44:24.201Z,3.00
2023-03-17T00:46:54.563Z,2.85
2023-03-17T00:49:25.212Z,3.30
2023-03-17T00:51:54.352Z,3.00
2023-03-17T00:54:24.188Z,3.45
2023-03-17T00:56:53.583Z,3.10
2023-03-17T00:59:28.665Z,3.50
2023-03-17T01:01:58.610Z,3.05
2023-03-17T01:04:26.724Z,3.00
2023-03-17T01:06:55.397Z,2.70
2023-03-17T01:09:26.869Z,2.60
2023-03-17T01:11:56.298Z,3.50
2023-03-17T01:14:24.715Z,2.90
2023-03-17T01:16:55.096Z,3.03
2023-03-17T01:19:25.117Z,2.92
2023-03-17T01:21:53.091Z,2.83
2023-03-17T01:24:21.346Z,3.00
2023-03-17T01:26:49.422Z,3.03
2023-03-17T01:29:18.277Z,2.78
2023-03-17T01:31:47.659Z,3.00
2023-03-17T01:34:15.914Z,2.80
2023-03-17T01:36:45.552Z,3.15
2023-03-17T01:39:15.440Z,2.67
2023-03-17T01:41:43.488Z,2.90
2023-03-17T01:44:16.940Z,3.30
2023-03-17T01:46:45.878Z,3.20
2023-03-17T01:49:23.831Z,3.25
2023-03-17T01:51:59.248Z,3.13
2023-03-17T01:54:34.727Z,3.05
2023-03-17T01:57:11.499Z,2.90
2023-03-17T01:59:45.483Z,2.70
2023-03-17T02:02:18.208Z,2.65
2023-03-17T02:04:46.230Z,2.97
2023-03-17T02:07:15.892Z,3.17
2023-03-17T02:09:44.709Z,2.83
2023-03-17T02:12:13.943Z,3.70
2023-03-17T02:14:42.586Z,2.78
2023-03-17T02:17:10.955Z,3.13
2023-03-17T02:19:38.912Z,2.88
2023-03-17T02:22:08.537Z,2.90
2023-03-17T02:24:40.444Z,2.63
2023-03-17T02:27:14.668Z,2.78
2023-03-17T02:29:46.183Z,3.10
2023-03-17T02:32:15.032Z,3.53
2023-03-17T02:34:42.934Z,3.33
2023-03-17T02:37:12.701Z,2.78
2023-03-17T02:39:40.917Z,2.85
2023-03-17T02:42:09.654Z,3.00
2023-03-17T02:44:37.700Z,3.22
2023-03-17T02:47:06.520Z,3.22
2023-03-17T02:49:35.853Z,2.65
2023-03-17T02:52:03.925Z,3.30
2023-03-17T02:54:33.402Z,2.80
2023-03-17T02:57:01.689Z,3.15
2023-03-17T02:59:29.747Z,3.28
2023-03-17T03:01:57.967Z,3.08
2023-03-17T03:04:26.192Z,3.35
2023-03-17T03:06:54.764Z,3.13
2023-03-17T03:09:22.844Z,3.30
2023-03-17T03:11:52.269Z,2.70
2023-03-17T03:14:20.371Z,2.78
2023-03-17T03:16:48.733Z,3.40
2023-03-17T03:19:17.501Z,3.53
2023-03-17T03:21:46.203Z,2.72
2023-03-17T03:24:14.350Z,3.53
2023-03-17T03:26:42.476Z,2.78
2023-03-17T03:29:11.848Z,2.92
2023-03-17T03:31:40.047Z,2.85
2023-03-17T03:34:08.451Z,2.88
2023-03-17T03:36:37.025Z,2.70
2023-03-17T03:39:05.364Z,3.30
2023-03-17T03:41:33.477Z,3.20
2023-03-17T03:44:01.695Z,2.95
2023-03-17T03:46:31.276Z,3.13
2023-03-17T03:48:59.427Z,3.25
2023-03-17T03:51:27.335Z,2.88
2023-03-17T03:53:55.560Z,3.20
2023-03-17T03:56:23.486Z,3.17
2023-03-17T03:58:52.423Z,3.25
2023-03-17T04:01:20.596Z,3.35
2023-03-17T04:03:49.958Z,3.28
2023-03-17T04:06:18.143Z,3.05
2023-03-17T04:08:46.116Z,3.22
2023-03-17T04:11:14.095Z,3.50
2023-03-17T04:13:42.155Z,3.20
2023-03-17T04:16:10.337Z,2.95
2023-03-17T04:18:38.407Z,3.05
2023-03-17T04:21:08.336Z,3.05
2023-03-17T04:23:36.604Z,2.97
2023-03-17T04:26:05.156Z,3.15
2023-03-17T04:28:33.170Z,3.38
2023-03-17T04:31:01.457Z,2.72
2023-03-17T04:33:30.043Z,2.80
2023-03-17T04:35:58.544Z,3.17
2023-03-17T04:38:28.077Z,3.33
2023-03-17T04:40:56.235Z,3.10
2023-03-17T04:43:24.534Z,3.10
2023-03-17T04:45:53.181Z,3.40
2023-03-17T04:48:21.173Z,3.13
2023-03-17T04:50:49.169Z,3.75
2023-03-17T04:53:17.709Z,2.92
2023-03-17T04:55:47.193Z,3.25
2023-03-17T04:58:29.611Z,2.88
2023-03-17T05:00:58.689Z,3.20
2023-03-17T05:03:28.588Z,3.47
2023-03-17T05:05:57.408Z,3.00
2023-03-17T05:08:26.173Z,3.60
2023-03-17T05:10:55.978Z,3.10
2023-03-17T05:13:24.954Z,2.88
2023-03-17T05:15:54.910Z,3.00
2023-03-17T05:18:24.592Z,3.13
2023-03-17T05:20:52.639Z,3.15
2023-03-17T05:23:20.602Z,3.10
2023-03-17T05:25:48.474Z,3.28
2023-03-17T05:28:18.246Z,3.13
2023-03-17T05:30:46.505Z,3.03
2023-03-17T05:33:14.573Z,3.20
2023-03-17T05:35:42.932Z,3.47
2023-03-17T05:38:12.720Z,2.85
2023-03-17T05:40:41.183Z,3.38
2023-03-17T05:43:09.302Z,2.83
2023-03-17T05:45:39.282Z,3.30
2023-03-17T05:48:07.530Z,3.55
2023-03-17T05:50:35.938Z,3.15
2023-03-17T05:53:03.857Z,3.10
2023-03-17T05:55:32.000Z,3.60
2023-03-17T05:58:00.901Z,3.20
2023-03-17T06:00:29.746Z,3.20
2023-03-17T06:02:59.520Z,3.42
2023-03-17T06:05:27.653Z,3.25
2023-03-17T06:07:56.601Z,2.90
2023-03-17T06:10:25.459Z,3.70
2023-03-17T06:12:53.763Z,3.40
2023-03-17T06:15:22.342Z,3.40
2023-03-17T06:17:50.356Z,3.42
2023-03-17T06:20:20.266Z,3.30
2023-03-17T06:23:02.669Z,2.95
2023-03-17T06:25:32.393Z,3.05
2023-03-17T06:28:02.607Z,3.38
2023-03-17T06:30:31.423Z,3.95
2023-03-17T06:33:00.142Z,3.42
2023-03-17T06:35:30.143Z,3.33
2023-03-17T06:37:58.715Z,3.80
2023-03-17T06:40:27.333Z,3.03
2023-03-17T06:42:55.546Z,3.28
2023-03-17T06:45:24.058Z,3.40
2023-03-17T06:47:52.110Z,2.83
2023-03-17T06:50:20.388Z,2.92
2023-03-17T06:52:50.074Z,3.30
2023-03-17T06:55:18.606Z,3.13
2023-03-17T06:57:48.391Z,2.85
2023-03-17T07:00:18.766Z,3.53
2023-03-17T07:02:47.335Z,3.58
2023-03-17T07:05:15.328Z,3.58
2023-03-17T07:07:43.617Z,3.58
2023-03-17T07:10:15.795Z,3.55
2023-03-17T07:12:44.062Z,3.65
2023-03-17T07:15:13.570Z,3.15
2023-03-17T07:17:42.095Z,3.25
2023-03-17T07:20:11.800Z,3.20
2023-03-17T07:22:39.884Z,3.67
2023-03-17T07:25:09.777Z,3.40
2023-03-17T07:27:39.686Z,4.35
2023-03-17T07:30:09.470Z,3.92
2023-03-17T07:32:37.808Z,2.85
2023-03-17T07:35:08.255Z,3.38
2023-03-17T07:37:36.398Z,3.97
2023-03-17T07:40:06.289Z,3.70
2023-03-17T07:42:34.246Z,3.20
2023-03-17T07:45:05.873Z,3.25
2023-03-17T07:47:33.847Z,3.30
2023-03-17T07:50:01.861Z,3.97
2023-03-17T07:52:30.063Z,3.92
2023-03-17T07:54:58.702Z,3.38
2023-03-17T07:57:27.259Z,3.80
2023-03-17T07:59:55.946Z,3.38
2023-03-17T08:02:25.422Z,3.78
2023-03-17T08:04:53.910Z,3.17
2023-03-17T08:07:21.827Z,3.35
2023-03-17T08:09:49.672Z,3.38
2023-03-17T08:12:17.790Z,4.00
2023-03-17T08:14:45.910Z,4.05
2023-03-17T08:17:13.787Z,3.60
2023-03-17T08:19:43.635Z,3.22
2023-03-17T08:22:12.452Z,3.75
2023-03-17T08:24:43.065Z,3.35
2023-03-17T08:27:11.420Z,3.47
2023-03-17T08:29:39.612Z,3.05
2023-03-17T08:32:08.737Z,3.38
2023-03-17T08:34:37.012Z,3.78
2023-03-17T08:37:10.106Z,3.35
2023-03-17T08:39:39.511Z,4.00
2023-03-17T08:42:08.244Z,3.65
2023-03-17T08:44:36.316Z,4.10
2023-03-17T08:47:05.170Z,3.80
2023-03-17T08:49:35.100Z,3.53
2023-03-17T08:52:03.783Z,3.58
2023-03-17T08:54:33.350Z,3.50
2023-03-17T08:57:01.831Z,3.28
2023-03-17T08:59:29.926Z,3.47
2023-03-17T09:01:58.100Z,3.55
2023-03-17T09:04:26.618Z,3.63
2023-03-17T09:07:03.166Z,3.45
2023-03-17T09:09:34.515Z,3.30
2023-03-17T09:12:04.491Z,3.80
2023-03-17T09:14:42.576Z,3.70
2023-03-17T09:17:11.561Z,3.65
2023-03-17T09:19:40.525Z,3.42
2023-03-17T09:22:09.094Z,3.33
2023-03-17T09:24:38.449Z,3.97
2023-03-17T09:27:07.113Z,3.80
2023-03-17T09:29:35.640Z,4.00
2023-03-17T09:32:04.426Z,3.38
2023-03-17T09:34:32.829Z,3.45
2023-03-17T09:37:00.845Z,3.60
2023-03-17T09:39:28.806Z,3.97
2023-03-17T09:42:20.413Z,3.70
2023-03-17T09:45:05.655Z,3.65
2023-03-17T09:48:05.060Z,3.80
2023-03-17T09:50:39.795Z,3.33
2023-03-17T09:53:17.817Z,3.47
2023-03-17T09:55:49.146Z,3.92
2023-03-17T09:58:22.377Z,3.65
2023-03-17T10:00:50.369Z,4.00
2023-03-17T10:03:18.653Z,3.78
2023-03-17T10:05:46.915Z,3.78
2023-03-17T10:08:30.815Z,3.72
2023-03-17T10:11:06.814Z,3.47
2023-03-17T10:13:50.094Z,3.70
2023-03-17T10:16:20.772Z,3.63
2023-03-17T10:18:55.466Z,3.78
2023-03-17T10:21:27.898Z,3.88
2023-03-17T10:23:59.347Z,3.40
2023-03-17T10:26:32.755Z,3.53
2023-03-17T10:29:04.701Z,4.03
2023-03-17T10:31:35.408Z,3.80
2023-03-17T10:34:14.318Z,3.85
2023-03-17T10:36:44.475Z,3.95
2023-03-17T10:39:15.432Z,4.00
2023-03-17T10:41:54.538Z,4.13
2023-03-17T10:44:35.961Z,3.70
2023-03-17T10:47:04.639Z,4.20
2023-03-17T10:49:37.218Z,3.83
2023-03-17T10:52:09.106Z,4.35
2023-03-17T10:54:39.267Z,4.13
2023-03-17T10:57:10.652Z,4.32
2023-03-17T10:59:45.045Z,4.28
2023-03-17T11:02:22.734Z,4.45
2023-03-17T11:04:51.057Z,4.82
2023-03-17T11:07:21.310Z,4.30
2023-03-17T11:09:51.714Z,4.55
2023-03-17T11:12:26.663Z,4.20
2023-03-17T11:15:04.133Z,4.35
2023-03-17T11:17:45.504Z,4.80
2023-03-17T11:20:31.409Z,4.03
2023-03-17T11:23:06.122Z,4.35
2023-03-17T11:25:38.490Z,4.35
2023-03-17T11:28:19.085Z,5.03
2023-03-17T11:31:00.194Z,4.28
2023-03-17T11:33:36.391Z,4.22
2023-03-17T11:36:15.671Z,4.45
2023-03-17T11:38:56.962Z,3.80
2023-03-17T11:41:45.069Z,4.13
2023-03-17T11:45:10.165Z,3.83
2023-03-17T11:48:16.270Z,4.07
2023-03-17T11:50:53.212Z,4.65
2023-03-17T11:53:34.881Z,3.85
2023-03-17T11:56:08.214Z,5.05
2023-03-17T11:58:40.534Z,5.00
2023-03-17T12:01:14.434Z,5.32
2023-03-17T12:03:49.012Z,5.40
2023-03-17T12:06:21.675Z,5.78
2023-03-17T12:08:55.286Z,4.80
2023-03-17T12:11:28.094Z,5.35
2023-03-17T12:14:00.923Z,5.22
2023-03-17T12:16:33.197Z,5.13
2023-03-17T12:19:12.306Z,5.25
2023-03-17T12:21:50.138Z,6.07
2023-03-17T12:24:21.253Z,6.07
2023-03-17T12:26:57.560Z,5.82
2023-03-17T12:29:36.525Z,6.05
2023-03-17T12:32:08.330Z,5.45
2023-03-17T12:34:46.121Z,6.00
2023-03-17T12:37:16.177Z,5.57
2023-03-17T12:39:51.310Z,5.43
2023-03-17T12:42:38.238Z,7.00
2023-03-17T12:45:42.586Z,5.97
2023-03-17T12:48:32.708Z,6.43
2023-03-17T12:51:17.662Z,5.90
2023-03-17T12:53:48.010Z,5.63
2023-03-17T12:56:22.396Z,5.47
2023-03-17T12:58:53.196Z,5.68
2023-03-17T13:01:33.185Z,6.88
2023-03-17T13:04:18.084Z,5.88
2023-03-17T13:06:54.711Z,7.15
2023-03-17T13:09:45.186Z,6.07
2023-03-17T13:12:56.077Z,5.53
2023-03-17T13:15:50.175Z,6.43
2023-03-17T13:18:46.474Z,6.15
2023-03-17T13:21:16.825Z,6.28
2023-03-17T13:23:48.122Z,6.57
2023-03-17T13:26:20.863Z,5.90
2023-03-17T13:28:51.892Z,6.97
2023-03-17T13:31:38.275Z,7.28
2023-03-17T13:34:16.452Z,6.35
2023-03-17T13:36:58.470Z,6.40
2023-03-17T13:39:52.760Z,6.68
2023-03-17T13:42:32.473Z,6.50
2023-03-17T13:45:17.830Z,6.20
2023-03-17T13:47:47.244Z,6.95
2023-03-17T13:50:18.184Z,6.00
2023-03-17T13:52:50.470Z,7.03
2023-03-17T13:55:37.953Z,6.45
2023-03-17T13:58:26.104Z,6.35
2023-03-17T14:01:02.680Z,6.32
2023-03-17T14:03:38.711Z,5.80
2023-03-17T14:06:08.813Z,6.43
2023-03-17T14:08:38.392Z,6.15
2023-03-17T14:11:22.520Z,6.30
2023-03-17T14:14:04.449Z,6.30
2023-03-17T14:16:35.960Z,6.53
2023-03-17T14:19:17.662Z,6.22
2023-03-17T14:21:45.875Z,6.07
2023-03-17T14:24:22.838Z,6.38
2023-03-17T14:26:53.619Z,7.05
2023-03-17T14:29:27.097Z,6.63
2023-03-17T14:32:05.417Z,6.50
2023-03-17T14:34:34.003Z,6.03
2023-03-17T14:37:03.447Z,6.55
2023-03-17T14:39:32.242Z,6.70
2023-03-17T14:42:04.395Z,5.95
2023-03-17T14:44:39.961Z,7.30
2023-03-17T14:47:15.918Z,6.20
2023-03-17T14:49:44.097Z,6.07
2023-03-17T14:52:25.058Z,6.72
2023-03-17T14:54:55.806Z,6.45
2023-03-17T14:57:30.272Z,6.60
2023-03-17T15:00:00.961Z,6.60
2023-03-17T15:02:34.176Z,6.47
2023-03-17T15:05:08.362Z,6.40
2023-03-17T15:07:41.747Z,6.65
2023-03-17T15:10:16.561Z,6.05
2023-03-17T15:12:47.363Z,8.18
2023-03-17T15:15:23.728Z,6.80
2023-03-17T15:17:53.195Z,7.32
2023-03-17T15:20:22.621Z,6.25
2023-03-17T15:22:58.255Z,6.63
2023-03-17T15:25:34.179Z,7.07
2023-03-17T15:28:08.986Z,6.80
2023-03-17T15:30:46.615Z,6.50
2023-03-17T15:33:22.269Z,6.25
2023-03-17T15:35:51.344Z,7.07
2023-03-17T15:38:19.303Z,7.68
2023-03-17T15:40:47.471Z,7.10
2023-03-17T15:43:18.588Z,7.13
2023-03-17T15:45:47.709Z,6.30
2023-03-17T15:48:21.393Z,6.50
2023-03-17T15:50:51.195Z,5.93
2023-03-17T15:53:19.534Z,6.63
2023-03-17T15:55:48.362Z,6.20
2023-03-17T15:58:17.627Z,5.78
2023-03-17T16:00:50.385Z,5.82
2023-03-17T16:03:25.633Z,7.20
2023-03-17T16:05:54.120Z,6.53
2023-03-17T16:08:22.373Z,6.07
2023-03-17T16:10:51.950Z,6.60
2023-03-17T16:13:22.289Z,7.28
2023-03-17T16:15:56.521Z,6.70
2023-03-17T16:18:32.337Z,7.03
2023-03-17T16:21:01.029Z,6.32
2023-03-17T16:23:32.235Z,6.38
2023-03-17T16:26:13.915Z,6.22
2023-03-17T16:28:45.910Z,6.53
2023-03-17T16:31:23.392Z,6.53
2023-03-17T16:33:52.937Z,6.63
2023-03-17T16:36:22.904Z,5.82
2023-03-17T16:38:51.321Z,6.55
2023-03-17T16:41:22.352Z,6.00
2023-03-17T16:43:55.475Z,6.68
2023-03-17T16:46:24.077Z,6.05
2023-03-17T16:48:52.535Z,6.45
2023-03-17T16:51:20.640Z,6.80
2023-03-17T16:53:48.683Z,6.57
2023-03-17T16:56:18.936Z,6.47
2023-03-17T16:58:47.776Z,6.28
2023-03-17T17:01:20.545Z,6.97
2023-03-17T17:03:48.840Z,5.75
2023-03-17T17:06:17.547Z,7.03
2023-03-17T17:08:47.172Z,7.82
2023-03-17T17:11:18.664Z,8.25
2023-03-17T17:13:48.980Z,7.25
2023-03-17T17:16:23.391Z,7.78
2023-03-17T17:18:51.508Z,6.78
2023-03-17T17:21:19.565Z,8.30
2023-03-17T17:23:47.586Z,12.10
2023-03-17T17:26:15.580Z,18.45
2023-03-17T17:28:43.606Z,9.27
2023-03-17T17:31:12.131Z,7.68
2023-03-17T17:33:41.410Z,7.55
2023-03-17T17:36:14.853Z,7.13
2023-03-17T17:38:43.395Z,6.93
2023-03-17T17:41:12.697Z,7.20
2023-03-17T17:43:41.083Z,6.63
2023-03-17T17:46:12.991Z,7.40
2023-03-17T17:48:42.340Z,6.63
2023-03-17T17:51:10.316Z,7.45
2023-03-17T17:53:38.564Z,7.65
2023-03-17T17:56:07.527Z,7.22
2023-03-17T17:58:35.715Z,7.50
2023-03-17T18:01:05.611Z,7.38
2023-03-17T18:03:33.874Z,8.13
2023-03-17T18:06:03.792Z,7.22
2023-03-17T18:08:31.986Z,6.85
2023-03-17T18:11:00.271Z,8.18
2023-03-17T18:13:28.169Z,7.60
2023-03-17T18:15:56.646Z,7.10
2023-03-17T18:18:24.968Z,7.70
2023-03-17T18:20:53.920Z,7.07
2023-03-17T18:23:23.206Z,7.00
2023-03-17T18:25:52.047Z,7.03
2023-03-17T18:28:20.119Z,7.28
2023-03-17T18:30:48.245Z,7.30
2023-03-17T18:33:20.536Z,8.63
2023-03-17T18:35:52.243Z,8.55
2023-03-17T18:38:20.336Z,7.88
2023-03-17T18:40:50.116Z,8.82
2023-03-17T18:43:18.280Z,9.48
2023-03-17T18:45:46.609Z,10.40
2023-03-17T18:48:14.867Z,10.82
2023-03-17T18:50:43.532Z,11.20
2023-03-17T18:53:12.142Z,12.25
2023-03-17T18:55:41.149Z,11.77
2023-03-17T18:58:10.613Z,11.60
2023-03-17T19:00:39.015Z,11.50
2023-03-17T19:03:07.238Z,12.07
2023-03-17T19:05:37.594Z,11.75
2023-03-17T19:08:05.735Z,11.68
2023-03-17T19:10:34.483Z,12.45
2023-03-17T19:13:02.509Z,13.77
2023-03-17T19:15:32.739Z,13.45
2023-03-17T19:18:01.076Z,12.52
2023-03-17T19:20:29.719Z,12.13
2023-03-17T19:22:58.348Z,12.05
2023-03-17T19:25:26.488Z,11.73
2023-03-17T19:27:55.580Z,11.75
2023-03-17T19:30:23.839Z,11.80
2023-03-17T19:32:53.336Z,11.07
2023-03-17T19:35:22.262Z,10.68
2023-03-17T19:37:50.947Z,10.98
2023-03-17T19:40:19.134Z,10.93
2023-03-17T19:42:47.247Z,10.77
2023-03-17T19:45:15.329Z,11.05
2023-03-17T19:47:43.765Z,12.75
2023-03-17T19:50:15.423Z,11.48
2023-03-17T19:52:45.939Z,11.95
2023-03-17T19:55:14.515Z,12.82
2023-03-17T19:57:42.544Z,12.23
2023-03-17T20:00:12.005Z,11.85
2023-03-17T20:02:40.031Z,13.13
2023-03-17T20:05:09.029Z,12.45
2023-03-17T20:07:38.581Z,12.02
2023-03-17T20:10:07.862Z,12.68
2023-03-17T20:12:38.046Z,12.80
2023-03-17T20:15:07.826Z,12.23
2023-03-17T20:17:36.222Z,13.45
2023-03-17T20:20:05.156Z,12.48
2023-03-17T20:22:33.518Z,12.23
2023-03-17T20:25:03.202Z,13.02
2023-03-17T20:27:32.193Z,13.48
2023-03-17T20:30:00.221Z,12.18
2023-03-17T20:32:29.877Z,11.82
2023-03-17T20:34:58.307Z,12.13
2023-03-17T20:37:26.323Z,12.90
2023-03-17T20:39:57.314Z,13.05
2023-03-17T20:42:26.641Z,13.32
2023-03-17T20:44:54.555Z,11.38
2023-03-17T20:47:22.526Z,13.05
2023-03-17T20:49:50.711Z,12.95
2023-03-17T20:52:18.633Z,12.95
2023-03-17T20:54:46.754Z,13.50
2023-03-17T20:57:16.028Z,12.73
2023-03-17T20:59:45.546Z,13.85
2023-03-17T21:02:18.245Z,14.00
2023-03-17T21:04:48.863Z,13.57
2023-03-17T21:07:18.879Z,13.18
2023-03-17T21:09:47.387Z,13.70
2023-03-17T21:12:18.213Z,13.60
2023-03-17T21:14:49.030Z,14.40
2023-03-17T21:17:18.303Z,13.63
2023-03-17T21:19:47.440Z,13.80
2023-03-17T21:22:16.152Z,15.20
2023-03-17T21:24:44.163Z,14.15
2023-03-17T21:27:12.953Z,14.93
2023-03-17T21:29:41.401Z,14.00
2023-03-17T21:32:10.757Z,14.20
2023-03-17T21:34:38.745Z,14.82
2023-03-17T21:37:06.848Z,14.23
2023-03-17T21:39:36.260Z,14.52
2023-03-17T21:42:05.323Z,15.27
2023-03-17T21:44:33.588Z,14.98
2023-03-17T21:47:03.232Z,15.05
2023-03-17T21:49:32.784Z,14.00
2023-03-17T21:52:01.291Z,13.57
2023-03-17T21:54:30.357Z,14.50
2023-03-17T21:56:58.291Z,14.82
2023-03-17T21:59:29.363Z,14.43
2023-03-17T22:01:57.834Z,14.90
2023-03-17T22:04:26.246Z,14.55
2023-03-17T22:06:55.974Z,15.88
2023-03-17T22:09:24.012Z,15.07
2023-03-17T22:11:51.865Z,13.90
2023-03-17T22:14:20.658Z,15.77
2023-03-17T22:16:49.362Z,14.85
2023-03-17T22:19:20.995Z,14.02
2023-03-17T22:21:49.413Z,12.55
2023-03-17T22:24:19.056Z,13.88
2023-03-17T22:26:47.101Z,14.45
2023-03-17T22:29:15.208Z,13.98
2023-03-17T22:31:43.276Z,13.70
2023-03-17T22:34:11.444Z,13.90
2023-03-17T22:36:39.529Z,13.68
2023-03-17T22:39:08.905Z,14.40
2023-03-17T22:41:38.777Z,14.63
2023-03-17T22:44:09.102Z,13.80
2023-03-17T22:46:38.062Z,13.50
2023-03-17T22:49:06.717Z,13.40
2023-03-17T22:51:36.046Z,13.52
2023-03-17T22:54:05.282Z,12.10
2023-03-17T22:56:33.819Z,12.65
2023-03-17T22:59:03.318Z,13.10
2023-03-17T23:01:31.921Z,12.75
2023-03-17T23:04:00.274Z,12.70
2023-03-17T23:06:28.184Z,12.23
2023-03-17T23:08:56.693Z,12.63
2023-03-17T23:11:26.056Z,11.48
2023-03-17T23:13:55.470Z,11.75
2023-03-17T23:16:28.232Z,10.45
2023-03-17T23:18:57.807Z,11.05
2023-03-17T23:21:29.758Z,10.63
2023-03-17T23:23:58.009Z,10.85
2023-03-17T23:26:26.094Z,9.75
2023-03-17T23:28:54.061Z,9.85
2023-03-17T23:31:22.464Z,10.00
2023-03-17T23:33:52.671Z,10.68
2023-03-17T23:36:21.415Z,10.15
2023-03-17T23:38:50.493Z,11.40
2023-03-17T23:41:18.939Z,9.68
2023-03-17T23:43:46.998Z,11.65
2023-03-17T23:46:15.184Z,10.20
2023-03-17T23:48:43.522Z,10.10
2023-03-17T23:51:14.399Z,10.10
2023-03-17T23:53:42.967Z,11.07
2023-03-17T23:56:13.126Z,11.32
2023-03-17T23:58:42.554Z,10.10
